Time;durP1;ratioP1;P1;durP2;ratioP2;P2;SDS_P1;SDS_P2;PMS_P1;PMS_P2;Temp;Humidity;BMP_temperature;BMP_pressure;BME280_temperature;BME280_humidity;BME280_pressure;Samples;Min_cycle;Max_cycle;Signal;HPM_P1;HPM_P2
2022/09/08 00:02:05;;;;;;;8.90;1.90;;;;;;;;;;5061177;28;20089;-69
2022/09/08 00:04:32;;;;;;;8.40;2.60;;;;;;;;;;5032689;28;20072;-69
2022/09/08 00:07:01;;;;;;;3.75;1.52;;;;;;;;;;5061529;28;20087;-69
2022/09/08 00:09:30;;;;;;;3.67;1.48;;;;;;;;;;5061539;28;20121;-68
2022/09/08 00:12:01;;;;;;;3.33;1.88;;;;;;;;;;5061653;28;20111;-68
2022/09/08 00:14:27;;;;;;;8.65;2.25;;;;;;;;;;5059846;28;20093;-68
2022/09/08 00:16:54;;;;;;;3.92;1.77;;;;;;;;;;5028895;28;20487;-68
2022/09/08 00:19:20;;;;;;;5.20;1.88;;;;;;;;;;5063442;28;20064;-69
2022/09/08 00:21:46;;;;;;;6.18;1.73;;;;;;;;;;5050649;28;20083;-68
2022/09/08 00:24:12;;;;;;;4.40;1.50;;;;;;;;;;5059683;28;20045;-68
2022/09/08 00:26:38;;;;;;;3.75;1.20;;;;;;;;;;5059609;28;20079;-69
2022/09/08 00:29:04;;;;;;;7.93;1.63;;;;;;;;;;5063600;28;20048;-68
2022/09/08 00:31:30;;;;;;;6.75;1.75;;;;;;;;;;5050178;28;20050;-68
2022/09/08 00:33:56;;;;;;;9.77;2.80;;;;;;;;;;5049275;28;20094;-69
2022/09/08 00:36:22;;;;;;;3.85;1.60;;;;;;;;;;5049610;28;20065;-68
2022/09/08 00:38:52;;;;;;;7.70;2.55;;;;;;;;;;5057868;28;20052;-69
2022/09/08 00:41:19;;;;;;;7.57;2.38;;;;;;;;;;5057790;28;20068;-68
2022/09/08 00:43:47;;;;;;;4.88;2.08;;;;;;;;;;5052375;28;20052;-68
2022/09/08 00:46:17;;;;;;;6.00;2.40;;;;;;;;;;5058715;28;20037;-69
2022/09/08 00:48:58;;;;;;;9.13;2.60;;;;;;;;;;5044013;28;20508;-69
2022/09/08 00:51:26;;;;;;;5.03;2.40;;;;;;;;;;5058902;28;20038;-69
2022/09/08 00:53:53;;;;;;;5.82;1.75;;;;;;;;;;5045925;28;20116;-69
2022/09/08 00:56:22;;;;;;;3.30;2.00;;;;;;;;;;5048563;28;20041;-69
2022/09/08 00:58:48;;;;;;;9.07;2.03;;;;;;;;;;5055184;28;20122;-69
2022/09/08 01:01:14;;;;;;;4.07;2.08;;;;;;;;;;5059039;28;20052;-69
2022/09/08 01:03:41;;;;;;;7.43;1.65;;;;;;;;;;5040221;28;20568;-68
2022/09/08 01:06:07;;;;;;;6.65;2.58;;;;;;;;;;5058517;28;20052;-69
2022/09/08 01:14:42;;;;;;;3.35;1.38;;;;;;;;;;5049081;28;20431;-69
2022/09/08 01:17:16;;;;;;;3.42;1.65;;;;;;;;;;5041099;28;20064;-69
2022/09/08 01:19:42;;;;;;;4.45;1.60;;;;;;;;;;5057681;28;20055;-69
2022/09/08 01:22:33;;;;;;;5.57;1.83;;;;;;;;;;5068772;28;20067;-70
2022/09/08 01:25:11;;;;;;;4.57;1.70;;;;;;;;;;5083129;28;20522;-69
2022/09/08 01:27:38;;;;;;;6.18;1.90;;;;;;;;;;5048930;28;20025;-69
2022/09/08 01:30:07;;;;;;;7.13;2.08;;;;;;;;;;5073803;28;20043;-69
2022/09/08 01:32:35;;;;;;;3.10;1.55;;;;;;;;;;5073574;28;20050;-69
2022/09/08 01:35:01;;;;;;;6.50;2.58;;;;;;;;;;5067635;28;20337;-69
2022/09/08 01:37:27;;;;;;;8.10;2.35;;;;;;;;;;5073528;28;20058;-69
2022/09/08 01:39:53;;;;;;;5.25;2.00;;;;;;;;;;5072425;28;20044;-69
2022/09/08 01:42:20;;;;;;;3.58;1.50;;;;;;;;;;5071047;28;22050;-69
2022/09/08 01:44:46;;;;;;;4.15;1.40;;;;;;;;;;5072497;28;20068;-69
2022/09/08 01:47:12;;;;;;;5.93;3.38;;;;;;;;;;5068892;28;20088;-69
2022/09/08 01:49:39;;;;;;;7.13;2.65;;;;;;;;;;5073845;28;20037;-69
2022/09/08 01:52:05;;;;;;;4.35;1.85;;;;;;;;;;5069251;28;20045;-69
2022/09/08 01:54:31;;;;;;;7.75;2.38;;;;;;;;;;5070199;28;20505;-69
2022/09/08 01:56:57;;;;;;;3.22;1.70;;;;;;;;;;5071037;28;20364;-69
2022/09/08 01:59:23;;;;;;;7.57;1.80;;;;;;;;;;5054447;28;20091;-71
2022/09/08 02:01:50;;;;;;;7.10;1.75;;;;;;;;;;5070813;28;20040;-69
2022/09/08 02:04:16;;;;;;;7.50;3.05;;;;;;;;;;5057753;28;20040;-69
2022/09/08 02:06:43;;;;;;;6.00;2.55;;;;;;;;;;5071723;28;20058;-69
2022/09/08 02:09:09;;;;;;;4.18;2.13;;;;;;;;;;5088971;28;20525;-69
2022/09/08 02:11:35;;;;;;;4.60;2.13;;;;;;;;;;5072185;28;20040;-69
2022/09/08 02:14:03;;;;;;;3.78;2.45;;;;;;;;;;5073689;28;20093;-69
2022/09/08 02:16:30;;;;;;;5.82;3.05;;;;;;;;;;5064036;28;20099;-69
2022/09/08 02:18:56;;;;;;;3.50;2.00;;;;;;;;;;5090068;28;20045;-69
2022/09/08 02:21:24;;;;;;;4.57;1.90;;;;;;;;;;5072904;28;20043;-69
2022/09/08 02:23:50;;;;;;;3.03;1.65;;;;;;;;;;5071446;28;20045;-69
2022/09/08 02:26:24;;;;;;;4.60;1.98;;;;;;;;;;5072607;28;20116;-69
2022/09/08 02:28:52;;;;;;;5.07;1.90;;;;;;;;;;5073337;28;20044;-69
2022/09/08 02:31:18;;;;;;;9.55;2.63;;;;;;;;;;5064538;28;20036;-71
2022/09/08 02:33:44;;;;;;;4.88;2.30;;;;;;;;;;5072165;28;20518;-69
2022/09/08 02:36:10;;;;;;;6.32;2.25;;;;;;;;;;5069732;28;20079;-69
2022/09/08 02:38:37;;;;;;;5.85;3.10;;;;;;;;;;5067179;28;20041;-69
2022/09/08 02:41:04;;;;;;;4.22;2.35;;;;;;;;;;5063875;28;20106;-69
2022/09/08 02:43:30;;;;;;;6.30;2.35;;;;;;;;;;5071432;28;20114;-69
2022/09/08 02:45:58;;;;;;;4.40;2.35;;;;;;;;;;5073044;28;20127;-69
2022/09/08 02:48:24;;;;;;;9.50;2.97;;;;;;;;;;5071240;28;20037;-70
2022/09/08 02:50:50;;;;;;;7.75;2.58;;;;;;;;;;5070472;28;20065;-69
2022/09/08 02:53:16;;;;;;;6.30;2.33;;;;;;;;;;5070417;28;20041;-70
2022/09/08 02:55:44;;;;;;;13.45;2.38;;;;;;;;;;5071228;28;20052;-70
2022/09/08 02:58:11;;;;;;;4.07;2.22;;;;;;;;;;5069690;28;20049;-70
2022/09/08 03:00:38;;;;;;;7.00;2.92;;;;;;;;;;5072625;28;21444;-69
2022/09/08 03:03:05;;;;;;;21.88;4.20;;;;;;;;;;5071395;28;20067;-71
2022/09/08 03:05:32;;;;;;;6.80;2.80;;;;;;;;;;5075392;28;20067;-70
2022/09/08 03:07:59;;;;;;;17.70;3.47;;;;;;;;;;5071713;28;20073;-71
2022/09/08 03:10:25;;;;;;;8.98;2.30;;;;;;;;;;5070323;28;20354;-69
2022/09/08 03:12:52;;;;;;;5.32;2.03;;;;;;;;;;5071347;28;20041;-70
2022/09/08 03:15:19;;;;;;;17.67;2.72;;;;;;;;;;5067965;28;20079;-70
2022/09/08 03:17:45;;;;;;;10.48;2.58;;;;;;;;;;5073988;28;20044;-70
2022/09/08 03:20:11;;;;;;;8.35;2.55;;;;;;;;;;5069966;28;20053;-69
2022/09/08 03:22:37;;;;;;;7.72;2.63;;;;;;;;;;5071134;28;20608;-70
2022/09/08 03:25:04;;;;;;;6.68;2.17;;;;;;;;;;5068708;28;20094;-69
2022/09/08 03:27:30;;;;;;;9.60;2.42;;;;;;;;;;5072291;28;20129;-70
2022/09/08 03:29:56;;;;;;;3.60;2.03;;;;;;;;;;5074514;28;20047;-70
2022/09/08 03:32:22;;;;;;;10.55;2.78;;;;;;;;;;5071448;28;20048;-70
2022/09/08 03:34:48;;;;;;;3.63;1.92;;;;;;;;;;5069633;28;20415;-70
2022/09/08 03:37:15;;;;;;;5.00;2.90;;;;;;;;;;5071975;28;20041;-70
2022/09/08 03:39:41;;;;;;;4.53;2.13;;;;;;;;;;5070370;28;20106;-69
2022/09/08 03:42:07;;;;;;;6.68;3.28;;;;;;;;;;5070221;28;20128;-70
2022/09/08 03:44:34;;;;;;;10.27;3.30;;;;;;;;;;5069751;28;20530;-70
2022/09/08 03:47:00;;;;;;;4.93;2.05;;;;;;;;;;5070921;28;20048;-70
2022/09/08 03:49:26;;;;;;;4.00;1.92;;;;;;;;;;5071027;28;20134;-69
2022/09/08 03:51:53;;;;;;;6.63;2.15;;;;;;;;;;5045671;28;20045;-69
2022/09/08 03:57:03;;;;;;;6.40;2.63;;;;;;;;;;5073486;28;20047;-69
2022/09/08 03:59:30;;;;;;;4.70;2.38;;;;;;;;;;5071040;28;20052;-70
2022/09/08 04:01:56;;;;;;;6.90;2.97;;;;;;;;;;5071802;28;20033;-69
2022/09/08 04:04:23;;;;;;;7.63;2.10;;;;;;;;;;5072635;28;20569;-70
2022/09/08 04:06:49;;;;;;;7.75;2.38;;;;;;;;;;5088863;28;20135;-69
2022/09/08 04:09:16;;;;;;;5.85;2.30;;;;;;;;;;5063962;28;20585;-70
2022/09/08 04:11:42;;;;;;;12.07;3.15;;;;;;;;;;5068030;28;20908;-69
2022/09/08 04:14:09;;;;;;;6.15;3.28;;;;;;;;;;5066416;28;20070;-70
2022/09/08 04:16:49;;;;;;;6.50;3.17;;;;;;;;;;5066622;28;20048;-72
2022/09/08 04:19:15;;;;;;;9.27;2.63;;;;;;;;;;5069561;28;20049;-71
2022/09/08 04:21:41;;;;;;;7.10;2.40;;;;;;;;;;5068849;28;20116;-70
2022/09/08 04:24:07;;;;;;;8.70;3.15;;;;;;;;;;5067421;28;20553;-70
2022/09/08 04:26:33;;;;;;;4.38;2.50;;;;;;;;;;5066072;28;20044;-70
2022/09/08 04:29:00;;;;;;;7.15;2.45;;;;;;;;;;5068624;28;20037;-70
2022/09/08 04:31:26;;;;;;;8.18;2.65;;;;;;;;;;5070052;28;20045;-70
2022/09/08 04:33:52;;;;;;;11.90;4.65;;;;;;;;;;5072476;28;20135;-70
2022/09/08 04:36:20;;;;;;;7.07;3.72;;;;;;;;;;5071010;28;20094;-69
2022/09/08 04:38:46;;;;;;;9.63;2.67;;;;;;;;;;5069979;28;20044;-69
2022/09/08 04:41:13;;;;;;;15.45;3.20;;;;;;;;;;5066291;28;20044;-69
2022/09/08 04:43:40;;;;;;;8.70;3.30;;;;;;;;;;5071056;28;20645;-69
2022/09/08 04:46:10;;;;;;;8.40;2.67;;;;;;;;;;5071011;28;20233;-69
2022/09/08 04:48:37;;;;;;;6.68;2.65;;;;;;;;;;5071694;28;20044;-70
2022/09/08 04:51:03;;;;;;;8.45;3.55;;;;;;;;;;5072036;28;20045;-70
2022/09/08 04:53:31;;;;;;;7.20;2.70;;;;;;;;;;5070977;28;20061;-70
2022/09/08 04:56:05;;;;;;;8.40;3.72;;;;;;;;;;5070784;28;20553;-73
2022/09/08 04:58:32;;;;;;;11.48;3.10;;;;;;;;;;5047611;28;20556;-69
2022/09/08 05:01:06;;;;;;;8.90;3.00;;;;;;;;;;5073119;28;20040;-69
2022/09/08 05:03:32;;;;;;;8.48;3.35;;;;;;;;;;5070221;28;20131;-68
2022/09/08 05:06:03;;;;;;;4.97;2.90;;;;;;;;;;5075022;28;20596;-69
2022/09/08 05:08:29;;;;;;;9.07;3.53;;;;;;;;;;5073626;28;20040;-71
2022/09/08 05:10:55;;;;;;;11.48;3.10;;;;;;;;;;5073332;28;20159;-68
2022/09/08 05:13:21;;;;;;;10.55;3.40;;;;;;;;;;5074213;28;20055;-68
2022/09/08 05:15:47;;;;;;;11.75;2.75;;;;;;;;;;5071992;28;20048;-69
2022/09/08 05:18:13;;;;;;;8.10;2.33;;;;;;;;;;5072105;28;20048;-68
2022/09/08 05:20:39;;;;;;;7.68;2.70;;;;;;;;;;5089823;28;20064;-69
2022/09/08 05:23:05;;;;;;;11.05;4.22;;;;;;;;;;5074416;28;20218;-69
2022/09/08 05:25:31;;;;;;;12.18;3.53;;;;;;;;;;5066259;28;20156;-69
2022/09/08 05:27:57;;;;;;;14.80;4.38;;;;;;;;;;5074040;28;20075;-69
2022/09/08 05:30:23;;;;;;;11.52;2.80;;;;;;;;;;5073624;28;20028;-69
2022/09/08 05:32:49;;;;;;;5.75;3.05;;;;;;;;;;5075336;28;20049;-69
2022/09/08 05:35:16;;;;;;;8.88;2.90;;;;;;;;;;5075056;28;20041;-69
2022/09/08 05:37:42;;;;;;;8.65;3.30;;;;;;;;;;5073367;28;20120;-68
2022/09/08 05:40:08;;;;;;;7.30;3.00;;;;;;;;;;5074486;28;20986;-69
2022/09/08 05:42:34;;;;;;;11.55;4.13;;;;;;;;;;5072069;28;20059;-69
2022/09/08 05:45:00;;;;;;;12.07;4.55;;;;;;;;;;5065372;28;20048;-69
2022/09/08 05:47:27;;;;;;;10.70;3.60;;;;;;;;;;5070678;28;20029;-68
2022/09/08 05:49:53;;;;;;;9.77;4.20;;;;;;;;;;5070908;28;20044;-68
2022/09/08 05:52:19;;;;;;;9.13;3.28;;;;;;;;;;5075343;28;20512;-68
2022/09/08 05:54:45;;;;;;;8.68;2.85;;;;;;;;;;5070175;28;20640;-68
2022/09/08 05:57:11;;;;;;;9.10;4.00;;;;;;;;;;5074362;28;20143;-68
2022/09/08 05:59:37;;;;;;;8.52;3.42;;;;;;;;;;5072847;28;20041;-68
2022/09/08 06:02:03;;;;;;;9.75;3.38;;;;;;;;;;5071933;28;20055;-69
2022/09/08 06:04:29;;;;;;;8.57;3.22;;;;;;;;;;5065812;28;20040;-68
2022/09/08 06:06:55;;;;;;;8.63;4.10;;;;;;;;;;5054212;28;20040;-68
2022/09/08 06:09:21;;;;;;;15.30;4.32;;;;;;;;;;5076019;28;20041;-68
2022/09/08 06:11:47;;;;;;;10.45;4.85;;;;;;;;;;5074480;28;20052;-68
2022/09/08 06:14:13;;;;;;;10.60;3.22;;;;;;;;;;5068066;28;20036;-68
2022/09/08 06:16:40;;;;;;;8.05;4.35;;;;;;;;;;5065758;28;20033;-68
2022/09/08 06:19:06;;;;;;;9.07;3.08;;;;;;;;;;5071983;28;20459;-68
2022/09/08 06:21:35;;;;;;;8.35;3.97;;;;;;;;;;5069830;28;20099;-73
2022/09/08 06:24:03;;;;;;;15.70;3.22;;;;;;;;;;5074906;28;20036;-69
2022/09/08 06:26:45;;;;;;;9.20;3.10;;;;;;;;;;5061422;28;20188;-69
2022/09/08 06:29:30;;;;;;;11.05;2.80;;;;;;;;;;5074362;28;20036;-69
2022/09/08 06:31:56;;;;;;;8.32;3.75;;;;;;;;;;5074183;28;20059;-69
2022/09/08 06:34:26;;;;;;;9.85;3.30;;;;;;;;;;5072696;28;20135;-69
2022/09/08 06:36:57;;;;;;;8.85;3.38;;;;;;;;;;5073766;28;20071;-69
2022/09/08 06:39:33;;;;;;;8.90;3.40;;;;;;;;;;5073827;28;20596;-69
2022/09/08 06:42:10;;;;;;;9.70;3.22;;;;;;;;;;5073435;28;20040;-69
2022/09/08 06:44:38;;;;;;;11.77;3.17;;;;;;;;;;5076111;28;20040;-69
2022/09/08 06:47:08;;;;;;;10.93;3.67;;;;;;;;;;5076484;28;20071;-69
2022/09/08 06:49:34;;;;;;;8.75;3.22;;;;;;;;;;5076430;28;20055;-69
2022/09/08 06:52:09;;;;;;;12.20;3.38;;;;;;;;;;5073188;28;20048;-69
2022/09/08 06:54:46;;;;;;;10.13;3.22;;;;;;;;;;5076029;28;20047;-69
2022/09/08 06:57:15;;;;;;;12.35;3.63;;;;;;;;;;5075155;28;20052;-74
2022/09/08 06:59:50;;;;;;;11.43;3.50;;;;;;;;;;5075278;28;20041;-68
2022/09/08 07:02:30;;;;;;;8.73;2.58;;;;;;;;;;5077146;28;20052;-69
2022/09/08 07:05:19;;;;;;;14.45;3.63;;;;;;;;;;5074074;28;20049;-69
2022/09/08 07:07:48;;;;;;;13.57;3.38;;;;;;;;;;5068101;28;20092;-69
2022/09/08 07:10:28;;;;;;;6.50;2.70;;;;;;;;;;5075006;28;20064;-69
2022/09/08 07:13:00;;;;;;;6.35;2.88;;;;;;;;;;5076772;28;20113;-69
2022/09/08 07:15:26;;;;;;;10.07;3.05;;;;;;;;;;5075643;28;20118;-70
2022/09/08 07:17:58;;;;;;;9.38;4.22;;;;;;;;;;5075549;28;20094;-70
2022/09/08 07:20:26;;;;;;;8.93;2.50;;;;;;;;;;5073842;28;20053;-69
2022/09/08 07:23:02;;;;;;;10.93;3.05;;;;;;;;;;5075555;28;20102;-69
2022/09/08 07:25:32;;;;;;;10.70;3.33;;;;;;;;;;5064137;28;20609;-69
2022/09/08 07:28:02;;;;;;;8.40;2.70;;;;;;;;;;5074568;28;20068;-70
2022/09/08 07:30:28;;;;;;;6.45;3.42;;;;;;;;;;5073916;28;20136;-69
2022/09/08 07:33:02;;;;;;;7.38;3.22;;;;;;;;;;5073947;28;20143;-70
2022/09/08 07:35:46;;;;;;;8.57;2.88;;;;;;;;;;5075196;28;20643;-69
2022/09/08 07:38:16;;;;;;;15.07;2.92;;;;;;;;;;5076201;28;20053;-69
2022/09/08 07:40:45;;;;;;;10.52;2.95;;;;;;;;;;5074164;28;20079;-69
2022/09/08 07:43:12;;;;;;;11.52;3.28;;;;;;;;;;5077322;28;20067;-70
2022/09/08 07:45:58;;;;;;;9.10;2.65;;;;;;;;;;5073861;28;20043;-70
2022/09/08 07:48:34;;;;;;;12.40;2.60;;;;;;;;;;5057182;28;20064;-70
2022/09/08 07:51:21;;;;;;;6.18;3.00;;;;;;;;;;5072900;28;20048;-70
2022/09/08 07:54:04;;;;;;;6.22;2.42;;;;;;;;;;5068498;28;21323;-70
2022/09/08 07:56:45;;;;;;;8.35;3.28;;;;;;;;;;5075183;28;21336;-69
2022/09/08 07:59:17;;;;;;;9.65;2.60;;;;;;;;;;5074883;28;20094;-69
2022/09/08 08:02:01;;;;;;;13.10;3.20;;;;;;;;;;5075155;28;20095;-69
2022/09/08 08:04:38;;;;;;;7.00;2.50;;;;;;;;;;5070971;28;20049;-70
2022/09/08 08:07:11;;;;;;;14.20;3.47;;;;;;;;;;5074418;28;20072;-70
2022/09/08 08:09:40;;;;;;;8.63;2.83;;;;;;;;;;5075769;28;20103;-70
2022/09/08 08:12:27;;;;;;;8.93;3.28;;;;;;;;;;5051382;28;20044;-70
2022/09/08 08:15:01;;;;;;;10.65;3.70;;;;;;;;;;5075790;28;20342;-70
2022/09/08 08:17:30;;;;;;;11.75;2.60;;;;;;;;;;5075839;28;20060;-70
2022/09/08 08:20:15;;;;;;;7.00;2.40;;;;;;;;;;5073121;28;20055;-69
2022/09/08 08:22:53;;;;;;;7.35;2.67;;;;;;;;;;5075400;28;20396;-69
2022/09/08 08:25:29;;;;;;;7.47;2.20;;;;;;;;;;5065835;28;20045;-70
2022/09/08 08:28:17;;;;;;;9.50;2.25;;;;;;;;;;5073430;28;20126;-69
2022/09/08 08:30:50;;;;;;;8.52;3.60;;;;;;;;;;5067912;28;20111;-70
2022/09/08 08:33:16;;;;;;;4.13;1.98;;;;;;;;;;5073307;28;20044;-69
2022/09/08 08:35:51;;;;;;;6.00;2.25;;;;;;;;;;5073160;28;20542;-69
2022/09/08 08:38:28;;;;;;;9.98;2.85;;;;;;;;;;5073141;28;20049;-69
2022/09/08 08:41:02;;;;;;;10.63;3.72;;;;;;;;;;5073257;28;20064;-69
2022/09/08 08:43:57;;;;;;;12.60;2.78;;;;;;;;;;5075418;28;20339;-69
2022/09/08 08:46:39;;;;;;;9.98;2.42;;;;;;;;;;5056288;28;20075;-70
2022/09/08 08:49:20;;;;;;;8.93;3.15;;;;;;;;;;5065921;28;20044;-69
2022/09/08 08:51:53;;;;;;;8.82;3.15;;;;;;;;;;5075140;28;20544;-69
2022/09/08 08:54:19;;;;;;;6.72;2.70;;;;;;;;;;5075009;28;20083;-69
2022/09/08 08:57:04;;;;;;;12.13;3.50;;;;;;;;;;5075550;28;20073;-69
2022/09/08 08:59:43;;;;;;;5.82;2.38;;;;;;;;;;5072482;28;20087;-69
2022/09/08 09:02:48;;;;;;;7.72;2.28;;;;;;;;;;5073936;28;20045;-69
2022/09/08 09:05:32;;;;;;;5.60;2.10;;;;;;;;;;4972221;28;20041;-69
2022/09/08 09:08:10;;;;;;;6.05;1.73;;;;;;;;;;4985675;28;20050;-70
2022/09/08 09:10:36;;;;;;;4.97;2.28;;;;;;;;;;5024552;28;20052;-69
2022/09/08 09:13:22;;;;;;;8.30;2.20;;;;;;;;;;5074835;28;20036;-69
2022/09/08 09:15:59;;;;;;;8.23;3.55;;;;;;;;;;5074333;28;20148;-69
2022/09/08 09:18:40;;;;;;;6.30;2.50;;;;;;;;;;5072590;28;20071;-70
2022/09/08 09:21:06;;;;;;;6.60;1.90;;;;;;;;;;5073611;28;20752;-69
2022/09/08 09:23:34;;;;;;;8.18;3.08;;;;;;;;;;5073136;28;20048;-69
2022/09/08 09:26:02;;;;;;;7.55;2.83;;;;;;;;;;5073743;28;20077;-70
2022/09/08 09:28:31;;;;;;;6.80;2.95;;;;;;;;;;5072056;28;20032;-69
2022/09/08 09:31:08;;;;;;;8.65;2.28;;;;;;;;;;5073250;28;20041;-69
2022/09/08 09:33:37;;;;;;;7.47;1.92;;;;;;;;;;5072370;28;20112;-69
2022/09/08 09:36:09;;;;;;;7.25;2.08;;;;;;;;;;5074184;28;20526;-70
2022/09/08 09:38:57;;;;;;;7.80;1.88;;;;;;;;;;5072908;28;20131;-69
2022/09/08 09:41:47;;;;;;;9.73;2.67;;;;;;;;;;5070375;28;20967;-69
2022/09/08 09:44:25;;;;;;;7.63;1.85;;;;;;;;;;5074096;28;20041;-69
2022/09/08 09:46:57;;;;;;;5.15;1.52;;;;;;;;;;5073321;28;20131;-69
2022/09/08 09:49:26;;;;;;;12.93;2.42;;;;;;;;;;5077907;28;20522;-69
2022/09/08 09:51:52;;;;;;;10.73;2.35;;;;;;;;;;5075284;28;20037;-69
2022/09/08 09:54:27;;;;;;;11.15;2.50;;;;;;;;;;5076241;28;20047;-69
2022/09/08 09:57:12;;;;;;;19.70;4.47;;;;;;;;;;5077349;28;20080;-69
2022/09/08 09:59:53;;;;;;;5.22;2.03;;;;;;;;;;5075927;28;20876;-69
2022/09/08 10:02:38;;;;;;;10.48;2.30;;;;;;;;;;5067918;28;20046;-69
2022/09/08 10:05:12;;;;;;;10.25;3.28;;;;;;;;;;5076466;28;20159;-69
2022/09/08 10:07:44;;;;;;;9.13;2.58;;;;;;;;;;5075186;28;20083;-69
2022/09/08 10:10:29;;;;;;;10.82;2.25;;;;;;;;;;5075371;28;20048;-69
2022/09/08 10:13:05;;;;;;;6.35;2.05;;;;;;;;;;5075743;28;20505;-69
2022/09/08 10:15:34;;;;;;;5.72;2.15;;;;;;;;;;5076689;28;20048;-69
2022/09/08 10:18:00;;;;;;;7.70;2.83;;;;;;;;;;5075232;28;20062;-69
2022/09/08 10:20:45;;;;;;;7.70;2.13;;;;;;;;;;5075918;28;20526;-69
2022/09/08 10:23:29;;;;;;;5.78;2.30;;;;;;;;;;5073807;28;20044;-69
2022/09/08 10:26:15;;;;;;;6.07;2.08;;;;;;;;;;5075216;28;20051;-69
2022/09/08 10:28:41;;;;;;;5.45;2.28;;;;;;;;;;5076269;28;20041;-69
2022/09/08 10:31:18;;;;;;;12.48;3.40;;;;;;;;;;5074974;28;20049;-70
2022/09/08 10:33:53;;;;;;;5.50;2.55;;;;;;;;;;5074308;28;20092;-69
2022/09/08 10:36:22;;;;;;;6.15;2.50;;;;;;;;;;5075119;28;20880;-70
2022/09/08 10:38:57;;;;;;;6.38;2.22;;;;;;;;;;5076231;28;20040;-70
2022/09/08 10:41:42;;;;;;;5.10;1.70;;;;;;;;;;5076042;28;20048;-69
2022/09/08 10:44:13;;;;;;;7.78;2.20;;;;;;;;;;5077022;28;20040;-69
2022/09/08 10:46:52;;;;;;;10.23;2.38;;;;;;;;;;5076848;28;20051;-69
2022/09/08 10:49:18;;;;;;;8.98;2.45;;;;;;;;;;5078077;28;20036;-70
2022/09/08 10:51:52;;;;;;;6.22;1.77;;;;;;;;;;5073958;28;20047;-70
2022/09/08 10:54:36;;;;;;;7.90;2.13;;;;;;;;;;5077159;28;20175;-70
2022/09/08 10:57:16;;;;;;;7.80;1.65;;;;;;;;;;5074688;28;20125;-70
2022/09/08 10:59:51;;;;;;;9.70;2.10;;;;;;;;;;5074038;28;20047;-69
2022/09/08 11:02:43;;;;;;;9.48;2.47;;;;;;;;;;5074198;28;20343;-69
2022/09/08 11:05:28;;;;;;;13.52;3.08;;;;;;;;;;5065245;28;20638;-70
2022/09/08 11:07:57;;;;;;;8.55;1.60;;;;;;;;;;5066737;28;20043;-70
2022/09/08 11:10:42;;;;;;;7.82;2.97;;;;;;;;;;5075661;28;20429;-70
2022/09/08 11:13:25;;;;;;;7.25;1.80;;;;;;;;;;5058291;28;20248;-70
2022/09/08 11:16:10;;;;;;;9.57;2.00;;;;;;;;;;5073416;28;20098;-70
2022/09/08 11:18:55;;;;;;;7.50;3.00;;;;;;;;;;5072643;28;20557;-70
2022/09/08 11:21:47;;;;;;;7.05;1.90;;;;;;;;;;5075374;28;20611;-70
2022/09/08 11:24:14;;;;;;;8.48;1.83;;;;;;;;;;5075907;28;20036;-70
2022/09/08 11:26:40;;;;;;;4.18;1.63;;;;;;;;;;5073998;28;20043;-71
2022/09/08 11:29:14;;;;;;;7.18;2.00;;;;;;;;;;5075720;28;20067;-70
2022/09/08 11:31:46;;;;;;;8.55;2.45;;;;;;;;;;5074429;28;20040;-69
2022/09/08 11:34:28;;;;;;;7.10;2.35;;;;;;;;;;5078492;28;20074;-70
2022/09/08 11:37:00;;;;;;;8.15;1.98;;;;;;;;;;5074303;28;20036;-69
2022/09/08 11:39:32;;;;;;;6.43;1.85;;;;;;;;;;5068822;28;20600;-70
2022/09/08 11:42:23;;;;;;;8.50;1.58;;;;;;;;;;5077310;28;20493;-70
2022/09/08 11:44:53;;;;;;;5.68;1.95;;;;;;;;;;5074700;28;20087;-70
2022/09/08 11:47:22;;;;;;;6.80;2.20;;;;;;;;;;5074243;28;20455;-69
2022/09/08 11:50:06;;;;;;;6.82;1.65;;;;;;;;;;5074185;28;20114;-69
2022/09/08 11:52:36;;;;;;;6.88;1.70;;;;;;;;;;5076037;28;20047;-69
2022/09/08 11:55:24;;;;;;;3.20;1.65;;;;;;;;;;5074701;28;20114;-68
2022/09/08 11:58:11;;;;;;;4.22;1.85;;;;;;;;;;5056726;28;20563;-69
2022/09/08 12:00:55;;;;;;;2.63;1.75;;;;;;;;;;5075275;28;20174;-69
2022/09/08 12:03:37;;;;;;;6.15;1.42;;;;;;;;;;5075931;28;20538;-68
2022/09/08 12:06:13;;;;;;;6.47;1.00;;;;;;;;;;5075910;28;20052;-69
2022/09/08 12:08:42;;;;;;;5.15;1.45;;;;;;;;;;5066071;28;20805;-68
2022/09/08 12:11:27;;;;;;;7.60;1.90;;;;;;;;;;5074969;28;20062;-68
2022/09/08 12:14:05;;;;;;;3.63;1.40;;;;;;;;;;5075341;28;20033;-69
2022/09/08 12:16:50;;;;;;;3.97;1.85;;;;;;;;;;5073504;28;20333;-69
2022/09/08 12:19:26;;;;;;;6.10;1.80;;;;;;;;;;5075234;28;20052;-69
2022/09/08 12:21:55;;;;;;;11.13;2.35;;;;;;;;;;5074014;28;20175;-69
2022/09/08 12:24:27;;;;;;;7.10;2.47;;;;;;;;;;5073549;28;20163;-69
2022/09/08 12:27:12;;;;;;;6.00;1.45;;;;;;;;;;5073461;28;20556;-70
2022/09/08 12:29:57;;;;;;;7.10;1.95;;;;;;;;;;5072589;28;20103;-70
2022/09/08 12:32:32;;;;;;;6.40;1.88;;;;;;;;;;5076035;28;20829;-69
2022/09/08 12:35:05;;;;;;;6.68;2.80;;;;;;;;;;5075125;28;20085;-68
2022/09/08 12:37:40;;;;;;;7.40;3.13;;;;;;;;;;5071616;28;20127;-69
2022/09/08 12:40:12;;;;;;;3.00;2.00;;;;;;;;;;5075750;28;20070;-69
2022/09/08 12:43:05;;;;;;;9.07;1.88;;;;;;;;;;5073085;28;20068;-69
2022/09/08 12:45:43;;;;;;;8.68;3.28;;;;;;;;;;5054843;28;20545;-69
2022/09/08 12:48:29;;;;;;;9.63;2.22;;;;;;;;;;5072929;28;20045;-69
2022/09/08 12:51:05;;;;;;;8.93;3.00;;;;;;;;;;5074843;28;20795;-69
2022/09/08 12:53:31;;;;;;;13.18;1.95;;;;;;;;;;5072853;28;20043;-69
2022/09/08 12:56:06;;;;;;;7.05;2.42;;;;;;;;;;5067391;28;20132;-69
2022/09/08 12:58:39;;;;;;;8.15;2.53;;;;;;;;;;5074685;28;20044;-69
2022/09/08 13:01:13;;;;;;;7.38;1.80;;;;;;;;;;5072530;28;20924;-69
2022/09/08 13:03:43;;;;;;;7.97;2.08;;;;;;;;;;5066856;28;20503;-69
2022/09/08 13:06:23;;;;;;;7.65;2.47;;;;;;;;;;5069872;28;20044;-69
2022/09/08 13:08:49;;;;;;;7.10;1.98;;;;;;;;;;5075369;28;20608;-69
2022/09/08 13:11:21;;;;;;;8.70;2.40;;;;;;;;;;5071103;28;20045;-69
2022/09/08 13:13:48;;;;;;;6.40;2.35;;;;;;;;;;5073329;28;20234;-69
2022/09/08 13:16:20;;;;;;;4.80;1.52;;;;;;;;;;5073286;28;20068;-69
2022/09/08 13:19:05;;;;;;;10.13;2.47;;;;;;;;;;5075220;28;20083;-69
2022/09/08 13:21:52;;;;;;;5.10;1.77;;;;;;;;;;5074713;28;20044;-69
2022/09/08 13:24:17;;;;;;;6.97;2.40;;;;;;;;;;5054996;28;20049;-69
2022/09/08 13:27:06;;;;;;;4.13;1.70;;;;;;;;;;5077611;28;20051;-69
2022/09/08 13:29:51;;;;;;;6.35;1.80;;;;;;;;;;5077543;28;20071;-68
2022/09/08 13:32:36;;;;;;;3.00;1.33;;;;;;;;;;5078104;28;20037;-72
2022/09/08 13:35:02;;;;;;;5.15;1.90;;;;;;;;;;5076220;28;20083;-68
2022/09/08 13:37:52;;;;;;;8.65;2.60;;;;;;;;;;5077503;28;20044;-71
2022/09/08 13:40:22;;;;;;;8.50;1.83;;;;;;;;;;5076134;28;20048;-70
2022/09/08 13:43:06;;;;;;;6.68;1.83;;;;;;;;;;5077659;28;20271;-70
2022/09/08 13:45:35;;;;;;;3.22;1.42;;;;;;;;;;5078155;28;20041;-71
2022/09/08 13:48:16;;;;;;;7.22;1.77;;;;;;;;;;5075141;28;20055;-75
2022/09/08 13:50:54;;;;;;;5.57;2.03;;;;;;;;;;5075607;28;20124;-73
2022/09/08 13:53:30;;;;;;;7.93;3.20;;;;;;;;;;5075255;28;20845;-73
2022/09/08 13:56:19;;;;;;;5.03;2.67;;;;;;;;;;5052758;28;20049;-69
2022/09/08 13:59:04;;;;;;;9.07;2.03;;;;;;;;;;5075894;28;20052;-73
2022/09/08 14:01:34;;;;;;;7.47;2.83;;;;;;;;;;5069405;28;20541;-74
2022/09/08 14:04:15;;;;;;;7.45;2.00;;;;;;;;;;5078023;28;20098;-67
2022/09/08 14:06:42;;;;;;;;;;;;;;;;;;5075912;28;20032;-67
2022/09/08 14:09:12;;;;;;;9.68;1.55;;;;;;;;;;5077122;28;20869;-67
2022/09/08 14:11:44;;;;;;;4.72;1.13;;;;;;;;;;5077733;28;20048;-67
2022/09/08 14:14:17;;;;;;;5.30;1.35;;;;;;;;;;5076351;28;20033;-67
2022/09/08 14:16:43;;;;;;;1.38;0.52;;;;;;;;;;5078051;28;20068;-67
2022/09/08 14:19:25;;;;;;;2.30;1.20;;;;;;;;;;5075933;28;20122;-68
2022/09/08 14:21:55;;;;;;;3.13;0.98;;;;;;;;;;5079151;28;20037;-67
2022/09/08 14:24:37;;;;;;;6.75;1.17;;;;;;;;;;5074400;28;21337;-67
2022/09/08 14:27:21;;;;;;;2.22;0.82;;;;;;;;;;5075272;28;20085;-67
2022/09/08 14:30:05;;;;;;;4.53;1.40;;;;;;;;;;5077376;28;20138;-67
2022/09/08 14:32:34;;;;;;;2.40;0.60;;;;;;;;;;5076267;28;20098;-68
2022/09/08 14:35:06;;;;;;;3.63;1.20;;;;;;;;;;5074386;28;20068;-68
2022/09/08 14:37:42;;;;;;;3.25;0.55;;;;;;;;;;5076693;28;20083;-68
2022/09/08 14:40:08;;;;;;;3.83;1.52;;;;;;;;;;5075731;28;20055;-68
2022/09/08 14:42:37;;;;;;;2.33;1.15;;;;;;;;;;5074171;28;20044;-68
2022/09/08 14:45:18;;;;;;;1.40;0.85;;;;;;;;;;5075780;28;20049;-68
2022/09/08 14:47:47;;;;;;;2.58;0.95;;;;;;;;;;5075530;28;20040;-68
2022/09/08 14:50:22;;;;;;;3.80;1.40;;;;;;;;;;5058858;28;20074;-67
2022/09/08 14:52:49;;;;;;;2.83;1.38;;;;;;;;;;5075602;28;20037;-68
2022/09/08 14:55:21;;;;;;;3.67;1.17;;;;;;;;;;5076318;28;20063;-67
2022/09/08 14:57:49;;;;;;;3.95;1.65;;;;;;;;;;5076559;28;20051;-68
2022/09/08 15:00:26;;;;;;;6.18;1.35;;;;;;;;;;5075877;28;20053;-67
2022/09/08 15:02:54;;;;;;;3.72;1.15;;;;;;;;;;5075103;28;20242;-67
2022/09/08 15:05:27;;;;;;;4.20;1.30;;;;;;;;;;5076822;28;20044;-68
2022/09/08 15:07:58;;;;;;;6.45;1.70;;;;;;;;;;5076416;28;20037;-68
2022/09/08 15:10:28;;;;;;;4.00;1.00;;;;;;;;;;5074965;28;20032;-68
2022/09/08 15:13:21;;;;;;;5.03;1.65;;;;;;;;;;5076857;28;20043;-68
2022/09/08 15:15:47;;;;;;;11.18;2.78;;;;;;;;;;5063987;28;20739;-68
2022/09/08 15:18:37;;;;;;;5.13;2.30;;;;;;;;;;5077088;28;20557;-68
2022/09/08 15:21:08;;;;;;;2.95;1.35;;;;;;;;;;5067035;28;20572;-68